Time;durP1;ratioP1;P1;durP2;ratioP2;P2;SDS_P1;SDS_P2;PMS_P1;PMS_P2;Temp;Humidity;BMP_temperature;BMP_pressure;BME280_temperature;BME280_humidity;BME280_pressure;Samples;Min_cycle;Max_cycle;Signal;HPM_P1;HPM_P2
2023/11/04 00:02:11;;;;;;;3.72;0.73;;;;;;;10.13;100.00;96830.19;4928536;29;20055;-93
2023/11/04 00:04:40;;;;;;;5.80;1.35;;;;;;;10.40;100.00;96902.22;4933371;29;20047;-95
2023/11/04 00:07:09;;;;;;;7.22;1.42;;;;;;;9.70;100.00;96775.06;4927299;28;20039;-94
2023/11/04 00:09:38;;;;;;;5.80;0.85;;;;;;;10.52;100.00;96903.31;4934093;29;20056;-94
2023/11/04 00:12:06;;;;;;;4.43;1.00;;;;;;;10.50;100.00;96894.59;4927666;28;20039;-95
2023/11/04 00:14:41;;;;;;;6.35;1.33;;;;;;;9.70;100.00;96771.56;4938431;29;20048;-94
2023/11/04 00:17:14;;;;;;;10.65;1.27;;;;;;;10.16;100.00;96851.31;4933435;29;20043;-93
2023/11/04 00:19:48;;;;;;;4.90;1.17;;;;;;;10.35;100.00;96881.22;4929565;28;20047;-94
2023/11/04 00:22:20;;;;;;;4.75;0.90;;;;;;;10.43;100.00;96871.03;4929750;29;20044;-91
2023/11/04 00:25:12;;;;;;;10.40;1.23;;;;;;;9.79;100.00;96766.59;4952662;28;20054;-93
2023/11/04 00:27:42;;;;;;;6.38;1.25;;;;;;;9.77;100.00;96760.50;4933240;29;20044;-92
2023/11/04 00:30:14;;;;;;;8.15;1.27;;;;;;;10.42;100.00;96865.78;4924539;28;20051;-92
2023/11/04 00:32:51;;;;;;;4.20;1.55;;;;;;;9.90;100.00;96766.00;4933323;29;20123;-93
2023/11/04 00:35:25;;;;;;;5.68;1.15;;;;;;;9.96;100.00;96770.97;4930625;29;20074;-94
2023/11/04 00:37:53;;;;;;;5.90;1.33;;;;;;;10.10;100.00;96787.91;4935198;28;20046;-93
2023/11/04 00:40:25;;;;;;;8.52;1.20;;;;;;;10.30;100.00;96839.91;4923749;29;20048;-92
2023/11/04 00:42:56;;;;;;;9.82;0.90;;;;;;;10.27;100.00;96822.31;4931006;29;20043;-93
2023/11/04 00:45:22;;;;;;;6.70;1.70;;;;;;;10.67;100.00;96894.50;4934271;29;20497;-92
2023/11/04 00:47:52;;;;;;;5.50;1.15;;;;;;;10.49;100.00;96829.94;4928446;29;20039;-92
2023/11/04 00:50:24;;;;;;;7.75;1.52;;;;;;;10.02;100.00;96775.94;4925101;29;20103;-91
2023/11/04 00:52:56;;;;;;;5.30;1.30;;;;;;;10.78;100.00;96888.53;4932314;29;20051;-94
2023/11/04 00:55:22;;;;;;;7.40;1.42;;;;;;;10.61;100.00;96887.72;4929808;28;20044;-94
2023/11/04 00:57:51;;;;;;;8.23;1.88;;;;;;;10.05;100.00;96799.63;4933008;29;20047;-93
2023/11/04 01:00:30;;;;;;;8.32;1.27;;;;;;;9.76;100.00;96793.31;4929718;28;20059;-94
2023/11/04 01:02:57;;;;;;;1.77;0.90;;;;;;;10.30;100.00;96870.03;4924295;29;20044;-93
2023/11/04 01:05:27;;;;;;;9.40;1.38;;;;;;;9.89;100.00;96793.50;4934878;29;20054;-92
2023/11/04 01:08:01;;;;;;;3.28;1.10;;;;;;;10.09;100.00;96842.81;4925214;29;20122;-93
2023/11/04 01:10:31;;;;;;;7.22;1.60;;;;;;;10.58;100.00;96902.97;4923685;29;20394;-95
2023/11/04 01:13:01;;;;;;;11.20;1.42;;;;;;;9.99;100.00;96812.41;4932191;29;20044;-93
2023/11/04 01:15:33;;;;;;;10.73;1.63;;;;;;;10.35;100.00;96865.28;4922772;29;20048;-94
2023/11/04 01:21:03;;;;;;;3.53;1.13;;;;;;;10.16;100.00;96811.47;4930243;29;20051;-93
2023/11/04 01:23:36;;;;;;;4.70;1.70;;;;;;;11.02;100.00;96948.28;4929940;29;20047;-91
2023/11/04 01:26:07;;;;;;;6.75;1.67;;;;;;;10.32;100.00;96824.75;4941473;29;20083;-94
2023/11/04 01:28:48;;;;;;;9.13;1.73;;;;;;;10.33;100.00;96810.53;4934473;29;20148;-95
2023/11/04 01:31:24;;;;;;;7.78;1.85;;;;;;;10.64;100.00;96841.50;4937519;28;20594;-92
2023/11/04 01:33:55;;;;;;;10.80;1.33;;;;;;;11.09;100.00;96909.72;4916939;29;20054;-94
2023/11/04 01:36:23;;;;;;;8.25;1.05;;;;;;;10.51;100.00;96792.66;4936364;29;20107;-94
2023/11/04 01:38:58;;;;;;;5.60;1.70;;;;;;;11.23;100.00;96892.09;4933009;29;20035;-94
2023/11/04 01:41:33;;;;;;;6.60;1.60;;;;;;;10.84;100.00;96829.69;4938915;29;20091;-93
2023/11/04 01:44:07;;;;;;;11.05;1.67;;;;;;;11.28;100.00;96900.69;4939254;28;20046;-93
2023/11/04 01:46:43;;;;;;;9.95;1.25;;;;;;;10.77;100.00;96818.56;4928985;29;20048;-93
2023/11/04 01:49:18;;;;;;;7.53;1.60;;;;;;;10.83;100.00;96833.31;4940368;29;20048;-94
2023/11/04 01:51:53;;;;;;;7.85;1.20;;;;;;;11.16;100.00;96878.31;4938718;29;20043;-94
2023/11/04 01:54:24;;;;;;;7.72;1.67;;;;;;;11.62;100.00;96947.38;4936496;29;20633;-93
2023/11/04 01:56:58;;;;;;;11.32;1.33;;;;;;;10.78;100.00;96825.59;4940110;29;20130;-93
2023/11/04 01:59:27;;;;;;;10.65;1.23;;;;;;;10.80;100.00;96813.06;4944063;29;20134;-92
2023/11/04 02:02:03;;;;;;;4.80;1.40;;;;;;;10.82;100.00;96813.84;4937121;29;20126;-92
2023/11/04 02:04:55;;;;;;;4.38;1.10;;;;;;;10.92;100.00;96821.25;4940844;29;20079;-94
2023/11/04 02:07:30;;;;;;;8.07;1.20;;;;;;;11.55;100.00;96924.75;4937175;29;20044;-94
2023/11/04 02:10:02;;;;;;;4.95;1.38;;;;;;;11.44;100.00;96922.75;4946794;29;20071;-94
2023/11/04 02:12:39;;;;;;;5.28;1.38;;;;;;;11.27;100.00;96896.28;4931626;29;20046;-94
2023/11/04 02:15:16;;;;;;;9.30;1.33;;;;;;;10.78;100.00;96806.09;4932655;29;20032;-94
2023/11/04 02:17:51;;;;;;;4.65;1.27;;;;;;;11.55;100.00;96905.28;4931579;29;20075;-93
2023/11/04 02:20:30;;;;;;;6.03;1.30;;;;;;;11.37;100.00;96862.84;4934053;29;20602;-94
2023/11/04 02:23:06;;;;;;;;;;;;;;;11.75;100.00;96936.00;4944095;28;20545;-93
2023/11/04 02:26:17;;;;;;;5.72;1.65;;;;;;;11.69;100.00;96935.44;4933180;29;20340;-93
2023/11/04 02:28:47;;;;;;;5.82;1.75;;;;;;;11.34;100.00;96886.13;4937424;29;20476;-95
2023/11/04 02:31:14;;;;;;;;;;;;;;;11.27;100.00;96928.22;4920786;29;20051;-95
2023/11/04 02:33:42;;;;;;;4.13;1.60;;;;;;;10.83;100.00;96851.91;4944716;29;19929;-95
2023/11/04 02:36:21;;;;;;;5.43;1.27;;;;;;;10.39;100.00;96778.31;4955469;29;20047;-94
2023/11/04 02:38:59;;;;;;;3.13;0.80;;;;;;;10.88;100.00;96847.16;4939610;29;20508;-94
2023/11/04 02:41:33;;;;;;;4.93;1.52;;;;;;;11.02;100.00;96860.53;4935489;29;20047;-95
2023/11/04 02:44:06;;;;;;;7.97;1.27;;;;;;;11.09;100.00;96874.31;4926525;29;20040;-93
2023/11/04 02:46:35;;;;;;;9.20;1.27;;;;;;;11.04;100.00;96855.13;4939426;29;20043;-94
2023/11/04 02:49:05;;;;;;;8.20;0.98;;;;;;;11.46;100.00;96927.97;4939349;29;20074;-93
2023/11/04 02:51:32;;;;;;;;;;;;;;;11.54;100.00;96933.72;4935846;29;20082;-96
2023/11/04 02:54:04;;;;;;;9.27;1.15;;;;;;;10.72;100.00;96806.50;4930664;29;19929;-92
2023/11/04 02:56:38;;;;;;;6.97;1.42;;;;;;;10.82;100.00;96832.44;4938905;29;20047;-95
2023/11/04 02:59:12;;;;;;;7.20;1.17;;;;;;;11.00;100.00;96870.38;4937885;29;20545;-92
2023/11/04 03:01:52;;;;;;;3.95;1.20;;;;;;;10.99;100.00;96887.28;4929443;29;20103;-94
2023/11/04 03:04:21;;;;;;;4.43;1.23;;;;;;;11.18;100.00;96929.63;4936485;29;20051;-93
2023/11/04 03:06:50;;;;;;;4.55;1.58;;;;;;;10.54;100.00;96803.09;4934598;29;20052;-94
2023/11/04 03:09:24;;;;;;;6.75;2.45;;;;;;;10.59;100.00;96843.56;4926539;29;20454;-94
2023/11/04 03:11:52;;;;;;;4.00;2.22;;;;;;;10.47;100.00;96834.50;4931077;29;20067;-93
2023/11/04 03:14:26;;;;;;;4.07;1.73;;;;;;;10.56;100.00;96860.56;4933069;29;20054;-94
2023/11/04 03:16:57;;;;;;;3.65;1.33;;;;;;;10.41;100.00;96826.88;4928626;29;20107;-94
2023/11/04 03:19:33;;;;;;;2.78;1.40;;;;;;;10.97;100.00;96926.41;4930658;29;20052;-93
2023/11/04 03:22:05;;;;;;;6.43;1.80;;;;;;;10.93;100.00;96943.50;4942715;29;20043;-96
2023/11/04 03:24:53;;;;;;;3.30;1.65;;;;;;;10.42;100.00;96892.38;4930071;29;20066;-95
2023/11/04 03:27:37;;;;;;;4.88;1.85;;;;;;;10.54;100.00;96967.88;4942400;29;20462;-96
2023/11/04 03:30:10;;;;;;;7.03;1.77;;;;;;;10.93;100.00;96959.47;4937729;29;20047;-93
2023/11/04 03:32:43;;;;;;;3.75;1.15;;;;;;;10.44;100.00;96866.56;4927833;29;20043;-94
2023/11/04 03:35:20;;;;;;;6.47;1.38;;;;;;;10.40;100.00;96887.13;4937590;28;20039;-94
2023/11/04 03:37:49;;;;;;;4.97;1.63;;;;;;;10.43;100.00;96923.28;4926690;29;20054;-94
2023/11/04 03:40:20;;;;;;;4.38;1.45;;;;;;;10.27;100.00;96899.38;4931318;29;20052;-92
2023/11/04 03:42:55;;;;;;;5.15;1.50;;;;;;;10.94;100.00;96987.75;4935634;29;20035;-95
2023/11/04 03:45:22;;;;;;;5.05;1.50;;;;;;;10.73;100.00;96931.34;4934542;29;20698;-94
2023/11/04 03:47:59;;;;;;;3.20;1.13;;;;;;;10.71;100.00;96901.31;4934141;29;20051;-94
2023/11/04 03:50:30;;;;;;;4.72;1.13;;;;;;;10.63;100.00;96882.31;4935508;29;20453;-93
2023/11/04 03:52:59;;;;;;;5.55;1.67;;;;;;;10.88;100.00;96917.16;4938624;29;20038;-94
2023/11/04 03:55:50;;;;;;;6.43;1.27;;;;;;;11.07;100.00;96921.41;4944723;29;20050;-93
2023/11/04 03:58:20;;;;;;;9.10;1.20;;;;;;;10.97;100.00;96835.13;4938565;29;20048;-94
2023/11/04 04:00:49;;;;;;;10.10;1.75;;;;;;;11.43;100.00;96904.22;4930116;29;20051;-93
2023/11/04 04:03:17;;;;;;;9.98;2.22;;;;;;;10.52;100.00;96767.78;4935076;29;20051;-92
2023/11/04 04:05:49;;;;;;;7.75;1.20;;;;;;;10.38;100.00;96777.44;4936556;29;20054;-94
2023/11/04 04:08:18;;;;;;;8.77;1.90;;;;;;;10.44;100.00;96907.28;4924832;29;20051;-94
2023/11/04 04:10:44;;;;;;;10.73;2.20;;;;;;;9.56;100.00;96814.78;4938205;29;20039;-93
2023/11/04 04:13:19;;;;;;;6.28;1.75;;;;;;;9.83;100.00;96829.19;4929053;28;20062;-94
2023/11/04 04:16:11;;;;;;;7.00;1.80;;;;;;;9.69;100.00;96815.81;4939662;29;20048;-96
2023/11/04 04:18:46;;;;;;;8.40;2.20;;;;;;;9.75;100.00;96843.81;4940698;29;20055;-94
2023/11/04 04:21:17;;;;;;;9.45;2.13;;;;;;;9.88;100.00;96842.22;4939771;29;20138;-96
2023/11/04 04:23:51;;;;;;;7.40;1.90;;;;;;;9.68;100.00;96834.50;4940531;29;20054;-95
2023/11/04 04:26:34;;;;;;;9.32;2.70;;;;;;;9.55;100.00;96840.44;4942683;29;20059;-95
2023/11/04 04:29:31;;;;;;;9.25;1.75;;;;;;;9.75;100.00;96873.03;4941770;29;20067;-95
2023/11/04 04:32:20;;;;;;;6.90;1.58;;;;;;;9.45;100.00;96850.72;4944792;29;20060;-94
2023/11/04 04:35:06;;;;;;;7.95;1.98;;;;;;;9.57;100.00;96848.34;4944922;29;20046;-95
2023/11/04 04:37:41;;;;;;;4.82;1.73;;;;;;;9.95;100.00;96903.78;4942647;29;20051;-95
2023/11/04 04:40:22;;;;;;;5.32;1.55;;;;;;;9.57;100.00;96873.06;4944311;29;20212;-94
2023/11/04 04:42:56;;;;;;;10.55;1.95;;;;;;;9.72;100.00;96900.59;4922917;29;20050;-95
2023/11/04 04:45:56;;;;;;;5.75;1.38;;;;;;;10.10;100.00;96931.31;4923434;29;20493;-95
2023/11/04 04:48:35;;;;;;;4.78;1.42;;;;;;;9.45;100.00;96869.28;4924198;29;20047;-94
2023/11/04 04:51:11;;;;;;;3.78;1.10;;;;;;;9.64;100.00;96939.94;4923226;29;20142;-96
2023/11/04 04:59:59;;;;;;;5.22;1.60;;;;;;;9.49;100.00;96903.59;4922231;29;20075;-95
2023/11/04 05:09:24;;;;;;;7.88;2.17;;;;;;;9.77;100.00;96903.00;4887597;29;20036;-94
2023/11/04 05:12:13;;;;;;;5.18;1.70;;;;;;;9.79;100.00;96906.44;4887369;29;20048;-94
2023/11/04 05:14:50;;;;;;;7.35;2.33;;;;;;;9.78;100.00;96899.38;4889481;29;20130;-95
2023/11/04 05:17:27;;;;;;;6.88;2.00;;;;;;;10.29;100.00;96990.50;4889148;29;20152;-95
2023/11/04 05:20:16;;;;;;;8.25;2.20;;;;;;;9.86;100.00;96944.97;4889112;29;20072;-95
2023/11/04 05:22:52;;;;;;;6.38;2.47;;;;;;;9.52;100.00;96922.88;4890276;29;20526;-95
2023/11/04 05:25:40;;;;;;;4.90;2.28;;;;;;;9.94;100.00;97000.34;4890683;29;20072;-94
2023/11/04 05:28:23;;;;;;;4.72;2.28;;;;;;;9.31;100.00;96921.34;4891819;29;20056;-93
2023/11/04 05:31:07;;;;;;;6.57;2.47;;;;;;;9.95;100.00;97018.81;4890844;29;20048;-95
2023/11/04 05:33:38;;;;;;;6.90;1.95;;;;;;;9.33;100.00;96928.28;4906567;29;20058;-93
2023/11/04 05:36:29;;;;;;;6.30;2.03;;;;;;;9.15;100.00;96916.84;4912821;29;20076;-94
2023/11/04 05:39:05;;;;;;;6.88;2.33;;;;;;;8.97;100.00;96902.69;4926665;29;20048;-95
2023/11/04 05:48:48;;;;;;;7.45;1.80;;;;;;;9.67;100.00;97072.47;4907809;29;20067;-92
2023/11/04 05:58:24;;;;;;;10.73;2.22;;;;;;;9.01;100.00;96919.31;4911560;29;20043;-93
2023/11/04 06:00:53;;;;;;;22.75;3.13;;;;;;;9.46;100.00;96989.53;4910293;29;20064;-94
2023/11/04 06:03:35;;;;;;;7.25;3.00;;;;;;;9.30;100.00;96956.75;4909569;29;20052;-96
2023/11/04 06:06:20;;;;;;;13.13;3.67;;;;;;;9.24;100.00;96958.78;4927369;29;20072;-94
2023/11/04 06:08:58;;;;;;;30.98;4.20;;;;;;;9.23;100.00;96970.31;4930522;29;20048;-95
2023/11/04 06:11:36;;;;;;;26.65;3.70;;;;;;;9.17;100.00;96970.66;4928707;29;20542;-94
2023/11/04 06:14:15;;;;;;;19.48;3.08;;;;;;;9.01;100.00;96988.25;4912238;29;20521;-94
2023/11/04 06:16:43;;;;;;;5.40;2.45;;;;;;;8.90;100.00;97001.16;4928452;29;20055;-95
2023/11/04 06:19:15;;;;;;;4.72;2.33;;;;;;;9.16;100.00;97007.84;4926432;29;20059;-93
2023/11/04 06:21:42;;;;;;;7.90;2.72;;;;;;;9.73;100.00;97092.56;4926175;29;20063;-92
2023/11/04 06:24:14;;;;;;;5.72;2.13;;;;;;;9.48;100.00;97015.97;4923654;29;20073;-94
2023/11/04 06:26:54;;;;;;;7.03;2.75;;;;;;;9.65;100.00;97011.53;4925606;29;20070;-95
2023/11/04 06:29:21;;;;;;;6.50;2.78;;;;;;;9.86;100.00;97027.25;4939260;29;20052;-94
2023/11/04 06:31:55;;;;;;;10.95;2.92;;;;;;;9.81;100.00;97024.00;4927668;29;20125;-96
2023/11/04 06:34:29;;;;;;;10.70;2.65;;;;;;;9.77;100.00;97010.03;4929373;29;20052;-95
2023/11/04 06:53:50;;;;;;;5.63;2.53;;;;;;;10.05;100.00;97035.13;5011916;23;20028;-95
2023/11/04 06:56:34;;;;;;;9.50;2.83;;;;;;;10.97;100.00;97173.75;4913384;29;20116;-96
2023/11/04 06:59:40;;;;;;;9.93;3.00;;;;;;;10.29;100.00;97070.19;4921358;29;20044;-95
2023/11/04 07:02:22;;;;;;;6.30;2.75;;;;;;;10.32;100.00;97080.66;4914385;29;20048;-95
2023/11/04 07:08:29;;;;;;;7.88;2.50;;;;;;;10.41;100.00;97085.50;4930647;29;20048;-95
2023/11/04 07:11:35;;;;;;;11.38;2.92;;;;;;;10.32;100.00;97078.00;4910965;29;20048;-95
2023/11/04 07:14:08;;;;;;;7.15;2.85;;;;;;;11.09;100.00;97183.72;4904962;29;20050;-95
2023/11/04 07:16:37;;;;;;;7.45;2.83;;;;;;;10.55;100.00;97079.44;4906035;29;20048;-95
2023/11/04 07:19:03;;;;;;;8.80;3.05;;;;;;;10.85;100.00;97140.72;4906440;29;20047;-95
2023/11/04 07:21:38;;;;;;;5.95;2.60;;;;;;;10.97;100.00;97147.16;4906114;29;20384;-94
2023/11/04 07:24:13;;;;;;;8.55;2.67;;;;;;;10.70;100.00;97083.06;4905471;29;20044;-95
2023/11/04 07:26:39;;;;;;;8.65;3.13;;;;;;;10.74;100.00;97095.25;4904625;29;20146;-95
2023/11/04 07:29:20;;;;;;;6.20;2.80;;;;;;;11.40;100.00;97198.00;4908641;29;20052;-95
2023/11/04 07:31:50;;;;;;;7.07;2.10;;;;;;;11.49;100.00;97217.91;4906018;29;20052;-96
2023/11/04 07:41:19;;;;;;;9.55;2.38;;;;;;;10.91;100.00;97144.84;4890986;29;19920;-95
2023/11/04 07:43:50;;;;;;;9.20;3.17;;;;;;;10.99;100.00;97123.97;4874468;29;20049;-94
2023/11/04 07:46:48;;;;;;;;;;;;;;;;;;;;;
2023/11/04 07:49:34;;;;;;;7.03;2.30;;;;;;;10.91;100.00;97144.84;4871524;29;20415;-95
2023/11/04 07:52:08;;;;;;;8.25;2.33;;;;;;;11.59;100.00;97251.09;4855478;29;20052;-91
2023/11/04 07:54:53;;;;;;;8.48;2.83;;;;;;;10.59;100.00;97118.19;4872729;29;20053;-95
2023/11/04 07:57:26;;;;;;;14.48;3.10;;;;;;;10.98;100.00;97185.25;4865285;29;20400;-92
2023/11/04 08:00:07;;;;;;;5.47;2.42;;;;;;;10.83;100.00;97142.59;4856252;29;20049;-94
2023/11/04 08:03:18;;;;;;;7.28;2.70;;;;;;;11.76;100.00;97260.81;4855255;29;20070;-95
2023/11/04 08:06:22;;;;;;;9.05;2.65;;;;;;;11.12;100.00;97129.50;4839902;29;20407;-93
2023/11/04 08:08:48;;;;;;;7.05;2.40;;;;;;;11.57;100.00;97202.38;4849139;29;20189;-93
2023/11/04 08:14:38;;;;;;;5.30;2.60;;;;;;;11.19;100.00;97120.25;4874996;29;20048;-94
2023/11/04 08:17:44;;;;;;;7.38;3.00;;;;;;;11.24;100.00;97139.47;4892017;29;20056;-95
2023/11/04 08:20:30;;;;;;;6.95;2.90;;;;;;;11.64;100.00;97242.84;4899884;29;20048;-94
2023/11/04 08:23:15;;;;;;;7.38;3.38;;;;;;;11.25;100.00;97173.09;4897463;29;20052;-95
2023/11/04 08:25:48;;;;;;;5.78;2.60;;;;;;;11.76;100.00;97223.53;4906930;29;20048;-94
2023/11/04 08:28:19;;;;;;;7.97;3.50;;;;;;;11.89;100.00;97231.72;4902763;29;20048;-94
2023/11/04 08:30:57;;;;;;;8.52;3.47;;;;;;;12.22;100.00;97254.69;4884889;29;20096;-93
2023/11/04 08:33:48;;;;;;;7.75;3.47;;;;;;;12.43;100.00;97264.09;4887143;29;20414;-92
2023/11/04 08:36:23;;;;;;;10.13;3.63;;;;;;;12.05;100.00;97165.91;4882383;29;20410;-90
2023/11/04 08:38:51;;;;;;;8.35;4.03;;;;;;;12.31;100.00;97216.84;4895755;29;20151;-95
2023/11/04 08:41:34;;;;;;;9.00;3.33;;;;;;;12.57;100.00;97271.28;4886546;29;20041;-92
2023/11/04 08:44:09;;;;;;;9.20;3.28;;;;;;;12.06;100.00;97190.78;4887282;29;20049;-93
2023/11/04 08:46:38;;;;;;;12.57;3.20;;;;;;;12.28;100.00;97230.34;4884067;29;20127;-95
2023/11/04 08:49:06;;;;;;;8.38;2.70;;;;;;;12.68;100.00;97281.31;4892143;29;20175;-93
2023/11/04 08:51:32;;;;;;;7.57;3.10;;;;;;;12.38;100.00;97159.53;4886729;29;20513;-91
2023/11/04 08:54:03;;;;;;;5.30;1.98;;;;;;;12.93;100.00;97195.34;4890328;29;20056;-93
2023/11/04 08:56:34;;;;;;;7.78;3.38;;;;;;;12.84;100.00;97138.06;4903036;29;20111;-93
2023/11/04 08:59:00;;;;;;;4.28;2.50;;;;;;;13.44;100.00;97208.19;4903010;29;20391;-93
2023/11/04 09:01:29;;;;;;;6.50;1.73;;;;;;;13.74;100.00;97254.31;4902333;29;20711;-93
2023/11/04 09:07:33;;;;;;;6.30;1.95;;;;;;;13.30;100.00;97148.53;4916499;29;20044;-94
2023/11/04 09:10:19;;;;;;;6.13;2.35;;;;;;;13.42;100.00;97162.03;4909787;29;20054;-92
2023/11/04 09:13:06;;;;;;;6.32;1.77;;;;;;;13.85;100.00;97279.47;4925209;29;20055;-92
2023/11/04 09:15:46;;;;;;;3.42;1.13;;;;;;;13.20;100.00;97159.84;4909708;29;20072;-94
2023/11/04 09:18:55;;;;;;;8.13;2.25;;;;;;;13.97;100.00;97286.72;4924643;29;20063;-95
2023/11/04 09:21:47;;;;;;;5.35;1.73;;;;;;;13.50;100.00;97189.97;4906110;29;20044;-95
2023/11/04 09:24:14;;;;;;;7.53;1.13;;;;;;;13.28;100.00;97176.25;4911073;29;20050;-94
2023/11/04 09:26:51;;;;;;;3.50;1.77;;;;;;;13.83;100.00;97244.00;4908179;29;20051;-92
2023/11/04 09:30:01;;;;;;;5.03;1.50;;;;;;;13.86;100.00;97302.59;4905041;29;20040;-93
2023/11/04 09:32:39;;;;;;;6.18;1.77;;;;;;;12.91;100.00;97213.25;4899286;29;20048;-94
2023/11/04 09:35:27;;;;;;;8.98;1.88;;;;;;;13.60;100.00;97267.69;4909776;29;20502;-95
2023/11/04 09:44:49;;;;;;;3.50;1.60;;;;;;;13.96;100.00;97188.78;4926022;29;20130;-93
2023/11/04 09:47:21;;;;;;;3.40;1.17;;;;;;;15.05;100.00;97309.03;4906533;29;20506;-94
2023/11/04 09:50:14;;;;;;;3.97;1.17;;;;;;;14.69;100.00;97208.91;4928500;29;20052;-94
2023/11/04 10:00:46;;;;;;;4.55;1.10;;;;;;;14.26;100.00;97201.06;4882057;29;20085;-96
2023/11/04 10:03:49;;;;;;;5.88;1.00;;;;;;;14.02;100.00;97208.91;4896031;29;20124;-94
2023/11/04 10:10:17;;;;;;;;;;;;;;;;;;;;;
2023/11/04 10:12:56;;;;;;;4.55;0.95;;;;;;;14.62;100.00;97229.03;4894599;29;20518;-95
2023/11/04 10:15:28;;;;;;;2.58;0.75;;;;;;;14.12;100.00;97192.16;4895404;29;20104;-95
2023/11/04 10:18:11;;;;;;;4.72;1.00;;;;;;;14.61;100.00;97211.22;4894938;29;20151;-95
2023/11/04 10:20:50;;;;;;;7.97;1.05;;;;;;;14.75;100.00;97262.00;4894094;29;20047;-96
2023/11/04 10:23:16;;;;;;;1.20;0.80;;;;;;;14.47;100.00;97172.88;4895144;29;20041;-93
2023/11/04 10:25:48;;;;;;;8.35;0.80;;;;;;;15.15;100.00;97260.09;4894143;29;20048;-93
2023/11/04 10:28:39;;;;;;;1.38;0.77;;;;;;;14.85;100.00;97172.06;4910775;29;20056;-93
2023/11/04 10:31:17;;;;;;;6.55;0.90;;;;;;;14.80;100.00;97179.56;4893663;29;20048;-96
2023/11/04 10:33:51;;;;;;;5.88;1.25;;;;;;;14.94;100.00;97267.81;4892679;29;20052;-96
2023/11/04 10:36:23;;;;;;;3.20;0.88;;;;;;;14.45;100.00;97160.59;4890899;29;20047;-95
2023/11/04 10:38:56;;;;;;;4.68;1.15;;;;;;;14.56;100.00;97182.97;4891248;29;20041;-95
2023/11/04 10:42:16;;;;;;;4.78;1.08;;;;;;;15.46;100.00;97282.06;4892383;29;20139;-94
2023/11/04 10:45:31;;;;;;;2.80;0.50;;;;;;;14.90;100.00;97167.28;4777654;30;20442;-94
2023/11/04 10:49:32;;;;;;;;;;;;;;;;;;;;;
2023/11/04 10:52:57;;;;;;;4.47;0.43;;;;;;;15.92;100.00;97259.19;4800328;29;20087;-94
2023/11/04 11:10:11;;;;;;;1.65;0.60;;;;;;;16.71;100.00;97279.19;4778151;30;20062;-95
2023/11/04 11:12:44;;;;;;;4.55;0.60;;;;;;;15.90;100.00;97165.47;4779672;30;20142;-95
2023/11/04 11:15:17;;;;;;;5.15;1.00;;;;;;;15.77;100.00;97149.44;4795496;30;20055;-94
2023/11/04 11:17:55;;;;;;;5.88;1.23;;;;;;;15.66;100.00;97141.28;4793888;30;20157;-94
2023/11/04 11:20:42;;;;;;;3.00;0.60;;;;;;;15.74;100.00;97199.69;4793925;30;20058;-93
2023/11/04 11:23:11;;;;;;;1.75;0.65;;;;;;;15.30;100.00;97140.31;4797365;29;20070;-95
2023/11/04 11:26:03;;;;;;;3.78;1.10;;;;;;;15.43;100.00;97145.66;4827251;29;20050;-93
2023/11/04 11:28:50;;;;;;;2.40;1.17;;;;;;;16.07;100.00;97211.59;4817681;29;20050;-93
2023/11/04 11:31:30;;;;;;;1.70;0.70;;;;;;;15.69;100.00;97135.69;4832768;29;20536;-92
2023/11/04 11:34:10;;;;;;;3.10;0.75;;;;;;;16.43;100.00;97245.53;4835737;29;20087;-94
2023/11/04 11:36:36;;;;;;;3.90;1.08;;;;;;;16.70;100.00;97242.59;4899787;29;20402;-93
2023/11/04 11:39:03;;;;;;;5.10;0.75;;;;;;;16.29;100.00;97117.84;4911092;29;20045;-92
2023/11/04 11:41:31;;;;;;;3.95;0.75;;;;;;;16.52;100.00;97212.63;4909350;29;20111;-93
2023/11/04 11:44:03;;;;;;;3.15;0.80;;;;;;;16.73;100.00;97228.09;4909580;29;20051;-93
2023/11/04 11:46:32;;;;;;;3.08;0.88;;;;;;;15.89;100.00;97103.91;4920375;29;20075;-92
2023/11/04 11:49:01;;;;;;;3.63;0.77;;;;;;;15.68;100.00;97134.00;4927128;29;20048;-93
2023/11/04 11:51:29;;;;;;;4.38;0.95;;;;;;;15.65;100.00;97102.06;4940347;29;20134;-93
2023/11/04 11:53:56;;;;;;;2.08;0.60;;;;;;;15.46;100.00;97086.50;4924377;29;20067;-93
2023/11/04 11:56:26;;;;;;;2.10;0.55;;;;;;;15.24;100.00;97089.03;4925696;29;20056;-94
2023/11/04 12:02:20;;;;;;;5.18;0.90;;;;;;;16.23;100.00;97185.34;4916028;29;20052;-94
2023/11/04 12:05:25;;;;;;;7.15;1.05;;;;;;;16.54;100.00;97201.78;4919332;29;20048;-94
2023/11/04 12:08:14;;;;;;;2.17;0.80;;;;;;;16.27;100.00;97121.59;4894739;29;20395;-93
2023/11/04 12:10:53;;;;;;;4.30;0.98;;;;;;;16.42;100.00;97107.88;4904764;29;20052;-95
2023/11/04 12:13:23;;;;;;;6.15;1.17;;;;;;;17.41;100.00;97219.19;4902015;29;20056;-94
2023/11/04 12:16:24;;;;;;;5.47;0.68;;;;;;;16.61;100.00;97120.72;4893978;29;20064;-92
2023/11/04 12:21:57;;;;;;;5.57;1.40;;;;;;;16.48;100.00;97093.13;4904344;29;20056;-94
2023/11/04 12:24:31;;;;;;;3.42;0.88;;;;;;;16.33;96.48;97108.59;4903792;29;20032;-93
2023/11/04 12:27:13;;;;;;;4.47;0.60;;;;;;;16.07;92.23;97091.81;4904846;29;20052;-94
2023/11/04 12:29:51;;;;;;;3.00;1.10;;;;;;;15.86;94.55;97112.19;4905152;29;20108;-94
2023/11/04 12:32:21;;;;;;;4.88;0.90;;;;;;;15.98;98.04;97140.75;4905118;29;20104;-95
2023/11/04 12:35:44;;;;;;;3.42;0.65;;;;;;;15.37;89.91;97109.44;4907265;29;20077;-93
2023/11/04 12:38:34;;;;;;;5.43;0.77;;;;;;;15.77;95.50;97111.06;4909697;29;20072;-95
2023/11/04 12:41:39;;;;;;;6.88;0.50;;;;;;;15.96;79.74;97148.03;4920404;29;20127;-94
2023/11/04 12:44:24;;;;;;;3.03;0.68;;;;;;;15.69;79.21;97127.66;4914753;29;20052;-93
2023/11/04 12:46:54;;;;;;;7.35;0.88;;;;;;;15.56;71.66;97121.50;4899663;29;20127;-95
2023/11/04 12:49:23;;;;;;;5.18;1.30;;;;;;;15.95;76.22;97133.78;4899515;29;20044;-94
2023/11/04 12:51:51;;;;;;;3.20;0.40;;;;;;;16.33;72.71;97191.75;4904285;29;20040;-95
2023/11/04 12:54:27;;;;;;;5.57;0.75;;;;;;;16.22;74.64;97197.03;4901379;29;20052;-94
2023/11/04 12:56:56;;;;;;;6.35;0.70;;;;;;;15.89;73.27;97120.00;4892677;29;20051;-94
2023/11/04 12:59:22;;;;;;;4.82;1.08;;;;;;;16.26;75.99;97154.75;4900852;29;20435;-94
2023/11/04 13:01:49;;;;;;;3.08;0.80;;;;;;;16.04;78.41;97115.31;4931063;29;20115;-91
2023/11/04 13:04:23;;;;;;;3.63;0.70;;;;;;;16.17;75.41;97119.59;4903896;29;20051;-90
2023/11/04 13:06:49;;;;;;;4.18;0.70;;;;;;;16.12;75.47;97094.97;4902955;29;20517;-94
2023/11/04 13:09:20;;;;;;;3.08;0.70;;;;;;;16.58;73.05;97144.25;4908345;29;20549;-93
2023/11/04 13:11:50;;;;;;;2.22;0.40;;;;;;;16.51;74.38;97133.13;4913185;29;20525;-94
2023/11/04 13:14:23;;;;;;;1.48;0.50;;;;;;;16.45;74.37;97108.59;4902579;29;20044;-93
2023/11/04 13:16:57;;;;;;;4.53;1.08;;;;;;;16.32;74.57;97101.50;4903731;29;20044;-93
2023/11/04 13:19:33;;;;;;;2.65;0.70;;;;;;;16.94;74.90;97221.09;4907446;29;20459;-94
2023/11/04 13:22:05;;;;;;;2.35;0.70;;;;;;;17.03;73.88;97208.78;4910025;29;20051;-92
2023/11/04 13:24:31;;;;;;;4.38;0.60;;;;;;;17.05;71.91;97206.84;4932405;29;20040;-92
2023/11/04 13:27:13;;;;;;;5.47;0.90;;;;;;;17.01;71.39;97190.09;4915643;29;20044;-94
2023/11/04 13:29:44;;;;;;;1.98;0.60;;;;;;;16.68;72.01;97126.44;4908162;29;20072;-93
2023/11/04 13:32:15;;;;;;;5.57;0.50;;;;;;;16.39;68.28;97080.41;4907699;29;20055;-92
2023/11/04 13:34:46;;;;;;;1.70;0.40;;;;;;;16.69;62.56;97148.78;4907043;29;20059;-92
2023/11/04 13:37:15;;;;;;;2.25;0.50;;;;;;;16.33;66.91;97083.56;4908826;29;20032;-91
2023/11/04 13:39:43;;;;;;;;;;;;;;;17.08;67.38;97219.16;4910259;29;20076;-92
2023/11/04 13:49:32;;;;;;;2.15;0.43;;;;;;;17.05;69.02;97209.53;4867015;29;20060;-92
2023/11/04 13:52:11;;;;;;;8.18;0.93;;;;;;;16.72;69.51;97148.53;4865054;29;20037;-92
2023/11/04 13:54:37;;;;;;;5.25;1.23;;;;;;;16.72;72.32;97170.00;4866649;29;20050;-91
2023/11/04 13:57:10;;;;;;;4.72;0.98;;;;;;;16.58;73.59;97150.44;4867589;29;20056;-93
2023/11/04 13:59:36;;;;;;;6.18;1.40;;;;;;;16.01;75.28;97092.25;4888564;29;20052;-93
2023/11/04 14:02:02;;;;;;;4.78;0.63;;;;;;;15.99;75.20;97111.13;4867196;29;20080;-93
2023/11/04 14:05:04;;;;;;;4.85;0.60;;;;;;;16.03;74.37;97146.63;4883186;29;20097;-92
2023/11/04 14:07:36;;;;;;;4.93;1.13;;;;;;;15.81;76.96;97113.38;4873541;29;20044;-91
2023/11/04 14:10:08;;;;;;;4.72;0.90;;;;;;;15.92;77.55;97154.63;4845861;29;20446;-94